sensor_id;sensor_type;location;lat;lon;timestamp;pressure;altitude;pressure_sealevel;temperature;humidity
36138;BME280;22194;50.046;21.954;2022-07-03T00:02:12;99519.38;;;20.13;60.53
36138;BME280;22194;50.046;21.954;2022-07-03T00:04:42;99520.10;;;20.13;60.43
36138;BME280;22194;50.046;21.954;2022-07-03T00:07:16;99520.96;;;20.11;60.62
36138;BME280;22194;50.046;21.954;2022-07-03T00:09:45;99523.88;;;20.09;60.60
36138;BME280;22194;50.046;21.954;2022-07-03T00:12:16;99520.61;;;20.07;60.70
36138;BME280;22194;50.046;21.954;2022-07-03T00:14:46;99518.20;;;20.06;60.71
36138;BME280;22194;50.046;21.954;2022-07-03T00:17:14;99514.35;;;20.05;60.77
36138;BME280;22194;50.046;21.954;2022-07-03T00:19:42;99513.23;;;20.05;60.79
36138;BME280;22194;50.046;21.954;2022-07-03T00:22:14;99513.73;;;20.04;60.73
36138;BME280;22194;50.046;21.954;2022-07-03T00:25:01;99515.66;;;20.03;60.80
36138;BME280;22194;50.046;21.954;2022-07-03T00:27:34;99518.05;;;20.01;60.95
36138;BME280;22194;50.046;21.954;2022-07-03T00:30:06;99520.41;;;19.99;60.92
36138;BME280;22194;50.046;21.954;2022-07-03T00:32:41;99524.52;;;19.98;60.95
36138;BME280;22194;50.046;21.954;2022-07-03T00:35:17;99523.70;;;19.97;60.95
36138;BME280;22194;50.046;21.954;2022-07-03T00:37:48;99531.33;;;19.94;61.08
36138;BME280;22194;50.046;21.954;2022-07-03T00:40:16;99529.66;;;19.93;60.97
36138;BME280;22194;50.046;21.954;2022-07-03T00:42:51;99526.11;;;19.91;61.06
36138;BME280;22194;50.046;21.954;2022-07-03T00:45:23;99526.50;;;19.89;61.05
36138;BME280;22194;50.046;21.954;2022-07-03T00:47:57;99528.95;;;19.86;61.00
36138;BME280;22194;50.046;21.954;2022-07-03T00:50:33;99527.36;;;19.84;61.13
36138;BME280;22194;50.046;21.954;2022-07-03T00:53:04;99521.06;;;19.82;61.18
36138;BME280;22194;50.046;21.954;2022-07-03T00:55:35;99514.88;;;19.81;61.21
36138;BME280;22194;50.046;21.954;2022-07-03T00:58:11;99513.09;;;19.81;61.35
36138;BME280;22194;50.046;21.954;2022-07-03T01:00:43;99510.52;;;19.80;61.26
36138;BME280;22194;50.046;21.954;2022-07-03T01:03:21;99508.63;;;19.79;61.33
36138;BME280;22194;50.046;21.954;2022-07-03T01:06:03;99507.68;;;19.77;61.37
36138;BME280;22194;50.046;21.954;2022-07-03T01:08:43;99506.59;;;19.74;61.43
36138;BME280;22194;50.046;21.954;2022-07-03T01:11:32;99503.83;;;19.73;61.47
36138;BME280;22194;50.046;21.954;2022-07-03T01:14:30;99500.81;;;19.73;61.39
36138;BME280;22194;50.046;21.954;2022-07-03T01:17:26;99500.44;;;19.71;61.57
36138;BME280;22194;50.046;21.954;2022-07-03T01:20:07;99498.46;;;19.69;61.51
36138;BME280;22194;50.046;21.954;2022-07-03T01:22:48;99495.76;;;19.68;61.57
36138;BME280;22194;50.046;21.954;2022-07-03T01:28:12;99492.56;;;19.65;61.73
36138;BME280;22194;50.046;21.954;2022-07-03T01:30:43;99491.38;;;19.65;61.66
36138;BME280;22194;50.046;21.954;2022-07-03T01:33:21;99487.56;;;19.63;61.74
36138;BME280;22194;50.046;21.954;2022-07-03T01:36:12;99490.05;;;19.62;61.79
36138;BME280;22194;50.046;21.954;2022-07-03T01:38:42;99495.14;;;19.61;61.81
36138;BME280;22194;50.046;21.954;2022-07-03T01:41:13;99490.95;;;19.60;61.87
36138;BME280;22194;50.046;21.954;2022-07-03T01:43:48;99492.23;;;19.60;61.88
36138;BME280;22194;50.046;21.954;2022-07-03T01:46:27;99488.19;;;19.59;61.91
36138;BME280;22194;50.046;21.954;2022-07-03T01:48:56;99492.19;;;19.58;61.94
36138;BME280;22194;50.046;21.954;2022-07-03T01:51:28;99488.23;;;19.58;62.08
36138;BME280;22194;50.046;21.954;2022-07-03T01:53:59;99486.56;;;19.59;61.95
36138;BME280;22194;50.046;21.954;2022-07-03T01:56:35;99487.54;;;19.58;62.06
36138;BME280;22194;50.046;21.954;2022-07-03T01:59:02;99488.34;;;19.57;62.03
36138;BME280;22194;50.046;21.954;2022-07-03T02:04:24;99488.64;;;19.55;62.18
36138;BME280;22194;50.046;21.954;2022-07-03T02:07:12;99489.82;;;19.54;62.27
36138;BME280;22194;50.046;21.954;2022-07-03T02:10:02;99485.39;;;19.53;62.25
36138;BME280;22194;50.046;21.954;2022-07-03T02:13:02;99483.23;;;19.53;62.32
36138;BME280;22194;50.046;21.954;2022-07-03T02:15:46;99482.20;;;19.51;62.26
36138;BME280;22194;50.046;21.954;2022-07-03T02:18:27;99479.48;;;19.49;62.29
36138;BME280;22194;50.046;21.954;2022-07-03T02:24:18;99476.86;;;19.48;62.44
36138;BME280;22194;50.046;21.954;2022-07-03T02:27:03;99476.86;;;19.48;62.50
36138;BME280;22194;50.046;21.954;2022-07-03T02:32:27;99483.21;;;19.46;62.48
36138;BME280;22194;50.046;21.954;2022-07-03T02:35:05;99481.73;;;19.43;62.51
36138;BME280;22194;50.046;21.954;2022-07-03T02:37:44;99488.91;;;19.41;62.59
36138;BME280;22194;50.046;21.954;2022-07-03T02:40:50;99483.93;;;19.41;62.65
36138;BME280;22194;50.046;21.954;2022-07-03T02:44:01;99483.98;;;19.40;62.65
36138;BME280;22194;50.046;21.954;2022-07-03T02:47:00;99486.16;;;19.39;62.70
36138;BME280;22194;50.046;21.954;2022-07-03T02:55:07;99488.02;;;19.38;62.82
36138;BME280;22194;50.046;21.954;2022-07-03T02:57:42;99486.64;;;19.37;62.76
36138;BME280;22194;50.046;21.954;2022-07-03T03:00:14;99483.98;;;19.35;62.86
36138;BME280;22194;50.046;21.954;2022-07-03T03:05:27;99484.02;;;19.33;62.95
36138;BME280;22194;50.046;21.954;2022-07-03T03:08:21;99482.75;;;19.31;62.98
36138;BME280;22194;50.046;21.954;2022-07-03T03:11:03;99479.10;;;19.30;63.06
36138;BME280;22194;50.046;21.954;2022-07-03T03:13:36;99474.11;;;19.30;63.11
36138;BME280;22194;50.046;21.954;2022-07-03T03:16:11;99473.64;;;19.31;63.13
36138;BME280;22194;50.046;21.954;2022-07-03T03:18:41;99475.64;;;19.31;63.16
36138;BME280;22194;50.046;21.954;2022-07-03T03:21:18;99471.13;;;19.31;63.15
36138;BME280;22194;50.046;21.954;2022-07-03T03:23:51;99474.63;;;19.32;63.21
36138;BME280;22194;50.046;21.954;2022-07-03T03:26:26;99471.13;;;19.32;63.23
36138;BME280;22194;50.046;21.954;2022-07-03T03:29:02;99466.89;;;19.33;63.35
36138;BME280;22194;50.046;21.954;2022-07-03T03:31:31;99467.75;;;19.34;63.31
36138;BME280;22194;50.046;21.954;2022-07-03T03:34:04;99469.36;;;19.36;63.32
36138;BME280;22194;50.046;21.954;2022-07-03T03:36:35;99466.91;;;19.37;63.40
36138;BME280;22194;50.046;21.954;2022-07-03T03:39:03;99472.54;;;19.38;63.36
36138;BME280;22194;50.046;21.954;2022-07-03T03:41:36;99467.60;;;19.39;63.39
36138;BME280;22194;50.046;21.954;2022-07-03T03:44:05;99466.93;;;19.40;63.49
36138;BME280;22194;50.046;21.954;2022-07-03T03:46:35;99469.70;;;19.41;63.49
36138;BME280;22194;50.046;21.954;2022-07-03T03:49:06;99471.35;;;19.43;63.55
36138;BME280;22194;50.046;21.954;2022-07-03T03:51:36;99468.02;;;19.43;63.52
36138;BME280;22194;50.046;21.954;2022-07-03T03:54:08;99468.04;;;19.45;63.55
36138;BME280;22194;50.046;21.954;2022-07-03T03:56:38;99471.09;;;19.47;63.60
36138;BME280;22194;50.046;21.954;2022-07-03T03:59:06;99471.31;;;19.48;63.67
36138;BME280;22194;50.046;21.954;2022-07-03T04:01:36;99471.11;;;19.48;63.66
36138;BME280;22194;50.046;21.954;2022-07-03T04:04:09;99470.60;;;19.50;63.77
36138;BME280;22194;50.046;21.954;2022-07-03T04:06:39;99469.13;;;19.52;63.76
36138;BME280;22194;50.046;21.954;2022-07-03T04:09:10;99466.14;;;19.53;63.79
36138;BME280;22194;50.046;21.954;2022-07-03T04:11:40;99469.79;;;19.55;63.76
36138;BME280;22194;50.046;21.954;2022-07-03T04:14:08;99468.04;;;19.56;63.81
36138;BME280;22194;50.046;21.954;2022-07-03T04:16:36;99469.41;;;19.56;63.78
36138;BME280;22194;50.046;21.954;2022-07-03T04:19:03;99467.71;;;19.57;63.79
36138;BME280;22194;50.046;21.954;2022-07-03T04:21:32;99464.60;;;19.57;63.85
36138;BME280;22194;50.046;21.954;2022-07-03T04:24:02;99464.96;;;19.57;63.88
36138;BME280;22194;50.046;21.954;2022-07-03T04:26:31;99461.46;;;19.57;63.81
36138;BME280;22194;50.046;21.954;2022-07-03T04:29:01;99462.44;;;19.58;63.92
36138;BME280;22194;50.046;21.954;2022-07-03T04:31:29;99460.52;;;19.59;63.97
36138;BME280;22194;50.046;21.954;2022-07-03T04:34:00;99459.48;;;19.60;63.97
36138;BME280;22194;50.046;21.954;2022-07-03T04:36:28;99462.84;;;19.62;64.00
36138;BME280;22194;50.046;21.954;2022-07-03T04:38:58;99464.84;;;19.64;64.02
36138;BME280;22194;50.046;21.954;2022-07-03T04:41:26;99464.95;;;19.65;63.99
36138;BME280;22194;50.046;21.954;2022-07-03T04:43:57;99463.42;;;19.65;64.01
36138;BME280;22194;50.046;21.954;2022-07-03T04:46:24;99461.48;;;19.68;64.17
36138;BME280;22194;50.046;21.954;2022-07-03T04:48:55;99461.14;;;19.72;64.04
36138;BME280;22194;50.046;21.954;2022-07-03T04:51:23;99466.82;;;19.74;64.11
36138;BME280;22194;50.046;21.954;2022-07-03T04:53:53;99461.43;;;19.76;64.18
36138;BME280;22194;50.046;21.954;2022-07-03T04:56:24;99460.98;;;19.78;64.20
36138;BME280;22194;50.046;21.954;2022-07-03T04:58:56;99456.44;;;19.81;64.20
36138;BME280;22194;50.046;21.954;2022-07-03T05:01:23;99457.14;;;19.83;64.15
36138;BME280;22194;50.046;21.954;2022-07-03T05:03:54;99455.83;;;19.85;64.27
36138;BME280;22194;50.046;21.954;2022-07-03T05:06:22;99456.42;;;19.88;64.32
36138;BME280;22194;50.046;21.954;2022-07-03T05:08:50;99453.08;;;19.92;64.35
36138;BME280;22194;50.046;21.954;2022-07-03T05:11:20;99449.55;;;19.97;64.30
36138;BME280;22194;50.046;21.954;2022-07-03T05:13:48;99448.02;;;20.01;64.30
36138;BME280;22194;50.046;21.954;2022-07-03T05:16:15;99447.63;;;20.05;64.19
36138;BME280;22194;50.046;21.954;2022-07-03T05:18:46;99445.81;;;20.08;64.35
36138;BME280;22194;50.046;21.954;2022-07-03T05:21:15;99446.27;;;20.14;64.27
36138;BME280;22194;50.046;21.954;2022-07-03T05:23:45;99443.39;;;20.20;64.34
36138;BME280;22194;50.046;21.954;2022-07-03T05:26:16;99443.83;;;20.26;64.27
36138;BME280;22194;50.046;21.954;2022-07-03T05:28:46;99448.17;;;20.30;64.32
36138;BME280;22194;50.046;21.954;2022-07-03T05:31:15;99451.89;;;20.34;64.20
36138;BME280;22194;50.046;21.954;2022-07-03T05:33:43;99455.61;;;20.36;64.21
36138;BME280;22194;50.046;21.954;2022-07-03T05:36:14;99459.42;;;20.40;64.25
36138;BME280;22194;50.046;21.954;2022-07-03T05:38:42;99463.89;;;20.42;64.25
36138;BME280;22194;50.046;21.954;2022-07-03T05:41:30;99466.16;;;20.46;64.26
36138;BME280;22194;50.046;21.954;2022-07-03T05:43:57;99466.54;;;20.49;64.25
36138;BME280;22194;50.046;21.954;2022-07-03T05:46:25;99465.05;;;20.53;64.02
36138;BME280;22194;50.046;21.954;2022-07-03T05:48:56;99471.68;;;20.53;64.00
36138;BME280;22194;50.046;21.954;2022-07-03T05:51:26;99476.85;;;20.54;64.01
36138;BME280;22194;50.046;21.954;2022-07-03T05:53:56;99471.81;;;20.50;64.12
36138;BME280;22194;50.046;21.954;2022-07-03T05:56:26;99468.40;;;20.48;64.11
36138;BME280;22194;50.046;21.954;2022-07-03T05:58:54;99471.60;;;20.49;64.12
36138;BME280;22194;50.046;21.954;2022-07-03T06:01:22;99465.06;;;20.51;64.10
36138;BME280;22194;50.046;21.954;2022-07-03T06:03:54;99461.08;;;20.53;64.07
36138;BME280;22194;50.046;21.954;2022-07-03T06:06:22;99457.33;;;20.56;64.04
36138;BME280;22194;50.046;21.954;2022-07-03T06:08:52;99457.16;;;20.61;64.18
36138;BME280;22194;50.046;21.954;2022-07-03T06:11:23;99456.22;;;20.68;64.07
36138;BME280;22194;50.046;21.954;2022-07-03T06:13:50;99458.02;;;20.74;64.00
36138;BME280;22194;50.046;21.954;2022-07-03T06:16:18;99462.14;;;20.81;64.07
36138;BME280;22194;50.046;21.954;2022-07-03T06:18:46;99460.22;;;20.88;64.09
36138;BME280;22194;50.046;21.954;2022-07-03T06:21:16;99455.08;;;20.95;64.06
36138;BME280;22194;50.046;21.954;2022-07-03T06:23:44;99452.63;;;21.03;64.01
36138;BME280;22194;50.046;21.954;2022-07-03T06:26:17;99451.35;;;21.11;63.99
36138;BME280;22194;50.046;21.954;2022-07-03T06:28:45;99449.10;;;21.20;63.96
36138;BME280;22194;50.046;21.954;2022-07-03T06:31:13;99449.55;;;21.31;64.03
36138;BME280;22194;50.046;21.954;2022-07-03T06:33:40;99443.56;;;21.39;63.80
36138;BME280;22194;50.046;21.954;2022-07-03T06:36:08;99447.45;;;21.49;63.68
36138;BME280;22194;50.046;21.954;2022-07-03T06:38:39;99452.20;;;21.60;63.85
36138;BME280;22194;50.046;21.954;2022-07-03T06:41:07;99449.48;;;21.67;63.92
36138;BME280;22194;50.046;21.954;2022-07-03T06:43:35;99448.02;;;21.74;63.69
36138;BME280;22194;50.046;21.954;2022-07-03T06:46:02;99450.48;;;21.78;63.72
36138;BME280;22194;50.046;21.954;2022-07-03T06:48:30;99451.98;;;21.80;63.45
36138;BME280;22194;50.046;21.954;2022-07-03T06:50:58;99448.16;;;21.83;63.58
36138;BME280;22194;50.046;21.954;2022-07-03T06:53:26;99445.34;;;21.88;63.50
36138;BME280;22194;50.046;21.954;2022-07-03T06:55:54;99446.31;;;21.90;63.58
36138;BME280;22194;50.046;21.954;2022-07-03T06:58:21;99447.41;;;21.95;63.40
36138;BME280;22194;50.046;21.954;2022-07-03T07:00:49;99441.52;;;22.00;63.52
36138;BME280;22194;50.046;21.954;2022-07-03T07:03:17;99440.91;;;22.11;63.50
36138;BME280;22194;50.046;21.954;2022-07-03T07:05:45;99436.23;;;22.30;63.40
36138;BME280;22194;50.046;21.954;2022-07-03T07:08:13;99437.60;;;22.51;63.40
36138;BME280;22194;50.046;21.954;2022-07-03T07:10:43;99432.92;;;22.64;63.20
36138;BME280;22194;50.046;21.954;2022-07-03T07:13:11;99424.65;;;22.78;63.40
36138;BME280;22194;50.046;21.954;2022-07-03T07:15:38;99420.09;;;22.87;63.16
36138;BME280;22194;50.046;21.954;2022-07-03T07:18:06;99410.84;;;23.02;63.06
36138;BME280;22194;50.046;21.954;2022-07-03T07:20:34;99406.27;;;23.29;62.84
36138;BME280;22194;50.046;21.954;2022-07-03T07:23:02;99407.06;;;23.88;62.33
36138;BME280;22194;50.046;21.954;2022-07-03T07:25:30;99410.88;;;24.27;62.35
36138;BME280;22194;50.046;21.954;2022-07-03T07:27:58;99408.99;;;24.35;62.38
36138;BME280;22194;50.046;21.954;2022-07-03T07:30:26;99403.98;;;24.40;62.51
36138;BME280;22194;50.046;21.954;2022-07-03T07:32:54;99406.56;;;24.48;62.34
36138;BME280;22194;50.046;21.954;2022-07-03T07:35:21;99405.77;;;24.47;62.12
36138;BME280;22194;50.046;21.954;2022-07-03T07:37:49;99404.73;;;24.47;62.13
36138;BME280;22194;50.046;21.954;2022-07-03T07:40:17;99403.11;;;24.50;62.01
36138;BME280;22194;50.046;21.954;2022-07-03T07:42:45;99402.42;;;24.48;61.78
36138;BME280;22194;50.046;21.954;2022-07-03T07:45:15;99397.71;;;24.45;61.77
36138;BME280;22194;50.046;21.954;2022-07-03T07:47:43;99396.73;;;24.46;61.74
36138;BME280;22194;50.046;21.954;2022-07-03T07:50:12;99394.17;;;24.46;61.59
36138;BME280;22194;50.046;21.954;2022-07-03T07:52:44;99391.61;;;24.46;61.31
36138;BME280;22194;50.046;21.954;2022-07-03T07:55:13;99391.99;;;24.45;61.23
36138;BME280;22194;50.046;21.954;2022-07-03T07:57:44;99392.61;;;24.41;61.08
36138;BME280;22194;50.046;21.954;2022-07-03T08:00:18;99393.92;;;24.34;60.85
36138;BME280;22194;50.046;21.954;2022-07-03T08:02:46;99394.80;;;24.30;60.91
36138;BME280;22194;50.046;21.954;2022-07-03T08:05:35;99397.66;;;24.28;60.69
36138;BME280;22194;50.046;21.954;2022-07-03T08:08:10;99395.70;;;24.25;60.62
36138;BME280;22194;50.046;21.954;2022-07-03T08:10:56;99392.13;;;24.18;60.29
36138;BME280;22194;50.046;21.954;2022-07-03T08:13:24;99394.77;;;24.11;60.21
36138;BME280;22194;50.046;21.954;2022-07-03T08:15:54;99394.05;;;24.14;60.05
36138;BME280;22194;50.046;21.954;2022-07-03T08:18:22;99397.66;;;24.24;59.79
36138;BME280;22194;50.046;21.954;2022-07-03T08:20:50;99399.30;;;24.28;59.83
36138;BME280;22194;50.046;21.954;2022-07-03T08:23:18;99397.24;;;24.36;59.55
36138;BME280;22194;50.046;21.954;2022-07-03T08:25:46;99395.08;;;24.81;59.18
36138;BME280;22194;50.046;21.954;2022-07-03T08:28:14;99395.14;;;25.59;58.47
36138;BME280;22194;50.046;21.954;2022-07-03T08:30:42;99388.08;;;26.60;57.96
36138;BME280;22194;50.046;21.954;2022-07-03T08:33:12;99384.80;;;27.56;57.95
36138;BME280;22194;50.046;21.954;2022-07-03T08:35:40;99385.86;;;28.48;57.67
36138;BME280;22194;50.046;21.954;2022-07-03T08:38:10;99386.23;;;29.17;57.79
36138;BME280;22194;50.046;21.954;2022-07-03T08:40:43;99383.55;;;29.95;57.37
36138;BME280;22194;50.046;21.954;2022-07-03T08:43:14;99385.27;;;30.53;57.26
36138;BME280;22194;50.046;21.954;2022-07-03T08:45:43;99382.35;;;30.70;57.25
36138;BME280;22194;50.046;21.954;2022-07-03T08:48:16;99381.99;;;30.69;57.23
36138;BME280;22194;50.046;21.954;2022-07-03T08:50:46;99381.92;;;30.66;56.70
36138;BME280;22194;50.046;21.954;2022-07-03T08:53:19;99382.05;;;30.45;56.46
36138;BME280;22194;50.046;21.954;2022-07-03T08:55:49;99380.41;;;30.16;56.42
36138;BME280;22194;50.046;21.954;2022-07-03T08:58:21;99380.17;;;29.85;55.97
36138;BME280;22194;50.046;21.954;2022-07-03T09:00:53;99380.84;;;29.54;55.59
36138;BME280;22194;50.046;21.954;2022-07-03T09:03:24;99379.28;;;29.21;55.39
36138;BME280;22194;50.046;21.954;2022-07-03T09:05:55;99374.00;;;28.97;54.81
36138;BME280;22194;50.046;21.954;2022-07-03T09:08:29;99378.16;;;28.73;54.65
36138;BME280;22194;50.046;21.954;2022-07-03T09:11:06;99374.70;;;28.55;54.39
36138;BME280;22194;50.046;21.954;2022-07-03T09:13:34;99373.23;;;28.39;53.94
36138;BME280;22194;50.046;21.954;2022-07-03T09:16:03;99366.32;;;28.35;53.91
36138;BME280;22194;50.046;21.954;2022-07-03T09:18:41;99364.52;;;28.46;53.47
36138;BME280;22194;50.046;21.954;2022-07-03T09:21:09;99368.53;;;28.42;53.29
36138;BME280;22194;50.046;21.954;2022-07-03T09:23:42;99365.17;;;28.35;53.06
36138;BME280;22194;50.046;21.954;2022-07-03T09:26:17;99362.70;;;28.13;52.80
36138;BME280;22194;50.046;21.954;2022-07-03T09:28:51;99357.94;;;27.89;52.36
36138;BME280;22194;50.046;21.954;2022-07-03T09:31:23;99359.85;;;27.76;52.04
36138;BME280;22194;50.046;21.954;2022-07-03T09:34:05;99360.19;;;27.70;52.31
36138;BME280;22194;50.046;21.954;2022-07-03T09:36:48;99362.28;;;27.71;51.75
36138;BME280;22194;50.046;21.954;2022-07-03T09:39:30;99357.54;;;27.87;51.78
36138;BME280;22194;50.046;21.954;2022-07-03T09:42:07;99349.66;;;27.96;51.48
36138;BME280;22194;50.046;21.954;2022-07-03T09:44:43;99348.45;;;28.09;51.39
36138;BME280;22194;50.046;21.954;2022-07-03T09:47:21;99345.36;;;27.99;51.31
36138;BME280;22194;50.046;21.954;2022-07-03T09:50:00;99340.05;;;27.74;50.70
36138;BME280;22194;50.046;21.954;2022-07-03T09:52:37;99335.67;;;27.58;50.67
36138;BME280;22194;50.046;21.954;2022-07-03T10:00:24;99327.83;;;28.33;50.25
36138;BME280;22194;50.046;21.954;2022-07-03T10:03:06;99326.95;;;28.54;50.43
36138;BME280;22194;50.046;21.954;2022-07-03T10:05:41;99327.77;;;28.81;50.35
36138;BME280;22194;50.046;21.954;2022-07-03T10:08:11;99321.72;;;28.65;49.29
36138;BME280;22194;50.046;21.954;2022-07-03T10:10:47;99324.11;;;28.29;49.08
36138;BME280;22194;50.046;21.954;2022-07-03T10:13:17;99326.38;;;28.36;49.22
36138;BME280;22194;50.046;21.954;2022-07-03T10:15:44;99324.70;;;28.44;49.29
36138;BME280;22194;50.046;21.954;2022-07-03T10:18:20;99320.70;;;28.45;48.93
36138;BME280;22194;50.046;21.954;2022-07-03T10:20:57;99321.56;;;28.53;48.88
36138;BME280;22194;50.046;21.954;2022-07-03T10:23:27;99316.38;;;28.59;48.71
36138;BME280;22194;50.046;21.954;2022-07-03T10:25:59;99314.85;;;28.50;48.44
36138;BME280;22194;50.046;21.954;2022-07-03T10:28:27;99317.98;;;28.32;48.32
36138;BME280;22194;50.046;21.954;2022-07-03T10:30:55;99317.15;;;28.32;48.20
36138;BME280;22194;50.046;21.954;2022-07-03T10:33:27;99316.80;;;28.33;48.16
36138;BME280;22194;50.046;21.954;2022-07-03T10:36:00;99316.47;;;28.28;47.86
36138;BME280;22194;50.046;21.954;2022-07-03T10:38:41;99314.73;;;28.23;47.60
36138;BME280;22194;50.046;21.954;2022-07-03T10:41:26;99309.23;;;28.16;47.30
36138;BME280;22194;50.046;21.954;2022-07-03T10:44:18;99305.57;;;28.05;47.44
36138;BME280;22194;50.046;21.954;2022-07-03T10:47:06;99299.23;;;28.03;47.35
36138;BME280;22194;50.046;21.954;2022-07-03T10:50:01;99294.41;;;28.02;47.51
36138;BME280;22194;50.046;21.954;2022-07-03T10:52:31;99291.72;;;27.89;46.99
36138;BME280;22194;50.046;21.954;2022-07-03T10:54:59;99288.70;;;27.80;46.86
36138;BME280;22194;50.046;21.954;2022-07-03T10:57:37;99286.90;;;27.78;46.72
36138;BME280;22194;50.046;21.954;2022-07-03T11:00:17;99287.88;;;27.71;46.76
36138;BME280;22194;50.046;21.954;2022-07-03T11:02:50;99284.40;;;27.56;46.56
36138;BME280;22194;50.046;21.954;2022-07-03T11:05:26;99279.76;;;27.53;46.65
36138;BME280;22194;50.046;21.954;2022-07-03T11:08:07;99280.69;;;27.52;46.23
36138;BME280;22194;50.046;21.954;2022-07-03T11:10:37;99273.45;;;27.51;46.33
36138;BME280;22194;50.046;21.954;2022-07-03T11:13:11;99275.27;;;27.53;46.29
36138;BME280;22194;50.046;21.954;2022-07-03T11:15:51;99267.61;;;27.55;46.08
36138;BME280;22194;50.046;21.954;2022-07-03T11:18:26;99266.38;;;27.58;45.88
36138;BME280;22194;50.046;21.954;2022-07-03T11:21:02;99265.39;;;27.62;45.88
36138;BME280;22194;50.046;21.954;2022-07-03T11:23:44;99264.91;;;27.64;45.97
36138;BME280;22194;50.046;21.954;2022-07-03T11:31:16;99258.77;;;27.55;45.49
36138;BME280;22194;50.046;21.954;2022-07-03T11:36:30;99258.22;;;27.34;45.31
36138;BME280;22194;50.046;21.954;2022-07-03T11:44:09;99241.45;;;26.94;45.10
36138;BME280;22194;50.046;21.954;2022-07-03T11:46:38;99238.17;;;26.92;45.01
36138;BME280;22194;50.046;21.954;2022-07-03T11:52:04;99242.29;;;27.07;44.70
36138;BME280;22194;50.046;21.954;2022-07-03T11:54:52;99242.02;;;27.21;44.95
36138;BME280;22194;50.046;21.954;2022-07-03T11:57:21;99240.61;;;27.28;44.68
36138;BME280;22194;50.046;21.954;2022-07-03T11:59:54;99240.68;;;27.29;44.72
36138;BME280;22194;50.046;21.954;2022-07-03T12:02:31;99240.45;;;27.33;44.68
36138;BME280;22194;50.046;21.954;2022-07-03T12:04:59;99235.11;;;27.37;44.92
36138;BME280;22194;50.046;21.954;2022-07-03T12:07:27;99236.70;;;27.37;44.66
36138;BME280;22194;50.046;21.954;2022-07-03T12:09:55;99230.00;;;27.41;44.52
36138;BME280;22194;50.046;21.954;2022-07-03T12:12:23;99236.67;;;27.44;44.57
36138;BME280;22194;50.046;21.954;2022-07-03T12:14:57;99231.23;;;27.46;44.36
36138;BME280;22194;50.046;21.954;2022-07-03T12:17:29;99228.59;;;27.46;44.41
36138;BME280;22194;50.046;21.954;2022-07-03T12:19:59;99224.52;;;27.48;44.23
36138;BME280;22194;50.046;21.954;2022-07-03T12:22:35;99222.56;;;27.52;44.28
36138;BME280;22194;50.046;21.954;2022-07-03T12:25:12;99218.21;;;27.56;44.35
36138;BME280;22194;50.046;21.954;2022-07-03T12:27:46;99216.63;;;27.60;44.19
36138;BME280;22194;50.046;21.954;2022-07-03T12:30:23;99215.70;;;27.65;43.98
36138;BME280;22194;50.046;21.954;2022-07-03T12:33:01;99214.16;;;27.68;44.07
36138;BME280;22194;50.046;21.954;2022-07-03T12:35:29;99206.69;;;27.72;44.01
36138;BME280;22194;50.046;21.954;2022-07-03T12:38:02;99207.89;;;27.73;43.69
36138;BME280;22194;50.046;21.954;2022-07-03T12:40:30;99213.97;;;27.72;43.64
36138;BME280;22194;50.046;21.954;2022-07-03T12:42:58;99212.35;;;27.68;43.68
36138;BME280;22194;50.046;21.954;2022-07-03T12:45:28;99212.70;;;27.58;43.49
36138;BME280;22194;50.046;21.954;2022-07-03T12:48:03;99204.23;;;27.52;43.59
36138;BME280;22194;50.046;21.954;2022-07-03T12:50:55;99209.36;;;27.54;43.70
36138;BME280;22194;50.046;21.954;2022-07-03T12:53:30;99203.17;;;27.55;43.74
36138;BME280;22194;50.046;21.954;2022-07-03T12:56:07;99203.51;;;27.57;43.60
36138;BME280;22194;50.046;21.954;2022-07-03T12:58:43;99201.39;;;27.59;43.52
36138;BME280;22194;50.046;21.954;2022-07-03T13:01:35;99197.88;;;27.62;43.39
36138;BME280;22194;50.046;21.954;2022-07-03T13:04:07;99190.44;;;27.63;43.47
36138;BME280;22194;50.046;21.954;2022-07-03T13:06:42;99188.30;;;27.64;43.29
36138;BME280;22194;50.046;21.954;2022-07-03T13:09:10;99187.79;;;27.66;43.12
36138;BME280;22194;50.046;21.954;2022-07-03T13:11:43;99187.70;;;27.71;43.05
36138;BME280;22194;50.046;21.954;2022-07-03T13:14:17;99185.55;;;27.75;42.99
36138;BME280;22194;50.046;21.954;2022-07-03T13:16:53;99184.94;;;27.80;43.04
36138;BME280;22194;50.046;21.954;2022-07-03T13:19:26;99182.02;;;27.82;42.99
36138;BME280;22194;50.046;21.954;2022-07-03T13:21:59;99174.85;;;27.86;42.95
36138;BME280;22194;50.046;21.954;2022-07-03T13:24:27;99175.71;;;27.87;42.99
36138;BME280;22194;50.046;21.954;2022-07-03T13:26:55;99172.91;;;27.85;42.82
36138;BME280;22194;50.046;21.954;2022-07-03T13:29:23;99169.89;;;27.79;42.85
36138;BME280;22194;50.046;21.954;2022-07-03T13:31:55;99164.20;;;27.77;42.82
36138;BME280;22194;50.046;21.954;2022-07-03T13:34:24;99163.93;;;27.77;42.89
36138;BME280;22194;50.046;21.954;2022-07-03T13:36:52;99165.70;;;27.76;42.78
36138;BME280;22194;50.046;21.954;2022-07-03T13:39:20;99158.83;;;27.74;42.67
36138;BME280;22194;50.046;21.954;2022-07-03T13:41:48;99157.13;;;27.67;42.46
36138;BME280;22194;50.046;21.954;2022-07-03T13:44:16;99152.82;;;27.62;42.31
36138;BME280;22194;50.046;21.954;2022-07-03T13:46:46;99154.12;;;27.58;42.46
36138;BME280;22194;50.046;21.954;2022-07-03T13:49:19;99149.78;;;27.58;42.32
36138;BME280;22194;50.046;21.954;2022-07-03T13:51:49;99152.09;;;27.60;42.40
36138;BME280;22194;50.046;21.954;2022-07-03T13:54:18;99152.33;;;27.60;42.29
36138;BME280;22194;50.046;21.954;2022-07-03T13:56:46;99151.29;;;27.60;42.16
36138;BME280;22194;50.046;21.954;2022-07-03T13:59:13;99146.02;;;27.61;42.19
36138;BME280;22194;50.046;21.954;2022-07-03T14:01:41;99147.30;;;27.60;42.15